sensor_id;sensor_type;location;lat;lon;timestamp;P1;durP1;ratioP1;P2;durP2;ratioP2
68614;SDS011;55593;51.994;5.882;2023-06-14T00:01:08;10.70;;;3.58;;
68614;SDS011;55593;51.994;5.882;2023-06-14T00:03:41;8.88;;;3.50;;
68614;SDS011;55593;51.994;5.882;2023-06-14T00:06:11;9.07;;;3.65;;
68614;SDS011;55593;51.994;5.882;2023-06-14T00:08:40;7.32;;;3.00;;
68614;SDS011;55593;51.994;5.882;2023-06-14T00:11:09;7.75;;;3.22;;
68614;SDS011;55593;51.994;5.882;2023-06-14T00:13:38;8.93;;;3.50;;
68614;SDS011;55593;51.994;5.882;2023-06-14T00:16:09;5.18;;;2.85;;
68614;SDS011;55593;51.994;5.882;2023-06-14T00:18:38;14.07;;;3.35;;
68614;SDS011;55593;51.994;5.882;2023-06-14T00:21:10;7.78;;;3.60;;
68614;SDS011;55593;51.994;5.882;2023-06-14T00:23:40;5.22;;;3.22;;
68614;SDS011;55593;51.994;5.882;2023-06-14T00:26:09;11.35;;;3.42;;
68614;SDS011;55593;51.994;5.882;2023-06-14T00:28:40;9.60;;;3.47;;
68614;SDS011;55593;51.994;5.882;2023-06-14T00:31:09;11.70;;;3.10;;
68614;SDS011;55593;51.994;5.882;2023-06-14T00:33:38;8.40;;;3.08;;
68614;SDS011;55593;51.994;5.882;2023-06-14T00:36:10;5.68;;;2.95;;
68614;SDS011;55593;51.994;5.882;2023-06-14T00:38:39;6.07;;;2.97;;
68614;SDS011;55593;51.994;5.882;2023-06-14T00:41:08;8.73;;;3.10;;
68614;SDS011;55593;51.994;5.882;2023-06-14T00:43:37;6.57;;;3.10;;
68614;SDS011;55593;51.994;5.882;2023-06-14T00:46:07;6.53;;;3.03;;
68614;SDS011;55593;51.994;5.882;2023-06-14T00:48:37;10.82;;;3.08;;
68614;SDS011;55593;51.994;5.882;2023-06-14T00:51:10;9.73;;;3.10;;
68614;SDS011;55593;51.994;5.882;2023-06-14T00:53:39;5.35;;;3.08;;
68614;SDS011;55593;51.994;5.882;2023-06-14T00:56:12;8.55;;;3.55;;
68614;SDS011;55593;51.994;5.882;2023-06-14T00:58:41;11.38;;;3.65;;
68614;SDS011;55593;51.994;5.882;2023-06-14T01:01:11;7.65;;;3.17;;
68614;SDS011;55593;51.994;5.882;2023-06-14T01:03:40;10.27;;;3.47;;
68614;SDS011;55593;51.994;5.882;2023-06-14T01:06:13;8.52;;;3.38;;
68614;SDS011;55593;51.994;5.882;2023-06-14T01:08:56;13.90;;;4.65;;
68614;SDS011;55593;51.994;5.882;2023-06-14T01:11:32;11.15;;;3.22;;
68614;SDS011;55593;51.994;5.882;2023-06-14T01:14:04;11.15;;;3.42;;
68614;SDS011;55593;51.994;5.882;2023-06-14T01:16:34;9.48;;;3.08;;
68614;SDS011;55593;51.994;5.882;2023-06-14T01:19:05;9.63;;;3.15;;
68614;SDS011;55593;51.994;5.882;2023-06-14T01:21:37;11.15;;;3.20;;
68614;SDS011;55593;51.994;5.882;2023-06-14T01:24:10;9.65;;;3.00;;
68614;SDS011;55593;51.994;5.882;2023-06-14T01:26:39;13.77;;;3.13;;
68614;SDS011;55593;51.994;5.882;2023-06-14T01:29:11;13.95;;;3.35;;
68614;SDS011;55593;51.994;5.882;2023-06-14T01:31:44;11.07;;;3.58;;
68614;SDS011;55593;51.994;5.882;2023-06-14T01:34:14;10.02;;;3.35;;
68614;SDS011;55593;51.994;5.882;2023-06-14T01:36:44;8.55;;;3.42;;
68614;SDS011;55593;51.994;5.882;2023-06-14T01:39:16;8.57;;;3.55;;
68614;SDS011;55593;51.994;5.882;2023-06-14T01:41:46;10.60;;;3.53;;
68614;SDS011;55593;51.994;5.882;2023-06-14T01:44:16;10.50;;;3.17;;
68614;SDS011;55593;51.994;5.882;2023-06-14T01:46:46;10.02;;;3.10;;
68614;SDS011;55593;51.994;5.882;2023-06-14T01:49:15;10.93;;;2.88;;
68614;SDS011;55593;51.994;5.882;2023-06-14T01:51:44;7.82;;;3.08;;
68614;SDS011;55593;51.994;5.882;2023-06-14T01:54:18;11.70;;;3.65;;
68614;SDS011;55593;51.994;5.882;2023-06-14T01:56:47;7.10;;;3.25;;
68614;SDS011;55593;51.994;5.882;2023-06-14T01:59:16;7.72;;;3.65;;
68614;SDS011;55593;51.994;5.882;2023-06-14T02:01:45;8.93;;;3.50;;
68614;SDS011;55593;51.994;5.882;2023-06-14T02:04:15;5.03;;;2.95;;
68614;SDS011;55593;51.994;5.882;2023-06-14T02:06:44;7.75;;;3.00;;
68614;SDS011;55593;51.994;5.882;2023-06-14T02:09:13;9.65;;;3.13;;
68614;SDS011;55593;51.994;5.882;2023-06-14T02:11:44;5.40;;;3.00;;
68614;SDS011;55593;51.994;5.882;2023-06-14T02:14:14;12.43;;;3.30;;
68614;SDS011;55593;51.994;5.882;2023-06-14T02:16:43;11.30;;;3.30;;
68614;SDS011;55593;51.994;5.882;2023-06-14T02:19:14;7.35;;;2.83;;
68614;SDS011;55593;51.994;5.882;2023-06-14T02:21:44;7.88;;;3.03;;
68614;SDS011;55593;51.994;5.882;2023-06-14T02:24:13;7.85;;;3.08;;
68614;SDS011;55593;51.994;5.882;2023-06-14T02:26:45;12.13;;;3.47;;
68614;SDS011;55593;51.994;5.882;2023-06-14T02:29:14;9.77;;;2.90;;
68614;SDS011;55593;51.994;5.882;2023-06-14T02:31:43;15.38;;;3.40;;
68614;SDS011;55593;51.994;5.882;2023-06-14T02:34:14;6.53;;;3.10;;
68614;SDS011;55593;51.994;5.882;2023-06-14T02:36:46;15.75;;;2.92;;
68614;SDS011;55593;51.994;5.882;2023-06-14T02:39:16;6.47;;;3.22;;
68614;SDS011;55593;51.994;5.882;2023-06-14T02:41:49;7.55;;;3.08;;
68614;SDS011;55593;51.994;5.882;2023-06-14T02:44:18;10.32;;;3.15;;
68614;SDS011;55593;51.994;5.882;2023-06-14T02:46:47;6.50;;;2.88;;
68614;SDS011;55593;51.994;5.882;2023-06-14T02:49:17;5.57;;;3.28;;
68614;SDS011;55593;51.994;5.882;2023-06-14T02:51:46;11.15;;;3.45;;
68614;SDS011;55593;51.994;5.882;2023-06-14T02:54:15;6.93;;;2.92;;
68614;SDS011;55593;51.994;5.882;2023-06-14T02:56:45;12.30;;;3.65;;
68614;SDS011;55593;51.994;5.882;2023-06-14T02:59:16;9.05;;;3.25;;
68614;SDS011;55593;51.994;5.882;2023-06-14T03:01:47;19.25;;;3.33;;
68614;SDS011;55593;51.994;5.882;2023-06-14T03:04:17;10.68;;;3.03;;
68614;SDS011;55593;51.994;5.882;2023-06-14T03:06:46;7.43;;;2.80;;
68614;SDS011;55593;51.994;5.882;2023-06-14T03:09:19;5.72;;;3.05;;
68614;SDS011;55593;51.994;5.882;2023-06-14T03:11:48;9.02;;;3.35;;
68614;SDS011;55593;51.994;5.882;2023-06-14T03:14:20;17.17;;;3.25;;
68614;SDS011;55593;51.994;5.882;2023-06-14T03:16:50;10.98;;;3.38;;
68614;SDS011;55593;51.994;5.882;2023-06-14T03:19:23;11.65;;;3.80;;
68614;SDS011;55593;51.994;5.882;2023-06-14T03:21:53;5.85;;;2.95;;
68614;SDS011;55593;51.994;5.882;2023-06-14T03:24:25;13.88;;;3.33;;
68614;SDS011;55593;51.994;5.882;2023-06-14T03:26:57;7.65;;;3.35;;
68614;SDS011;55593;51.994;5.882;2023-06-14T03:29:31;10.73;;;3.40;;
68614;SDS011;55593;51.994;5.882;2023-06-14T03:32:01;16.95;;;4.60;;
68614;SDS011;55593;51.994;5.882;2023-06-14T03:34:39;7.55;;;3.10;;
68614;SDS011;55593;51.994;5.882;2023-06-14T03:39:46;5.43;;;2.90;;
68614;SDS011;55593;51.994;5.882;2023-06-14T03:42:20;6.82;;;3.17;;
68614;SDS011;55593;51.994;5.882;2023-06-14T03:44:52;8.90;;;3.20;;
68614;SDS011;55593;51.994;5.882;2023-06-14T03:47:23;7.05;;;3.38;;
68614;SDS011;55593;51.994;5.882;2023-06-14T03:49:53;10.05;;;3.40;;
68614;SDS011;55593;51.994;5.882;2023-06-14T03:52:22;9.00;;;2.97;;
68614;SDS011;55593;51.994;5.882;2023-06-14T03:54:52;9.15;;;2.90;;
68614;SDS011;55593;51.994;5.882;2023-06-14T03:57:22;10.05;;;4.00;;
68614;SDS011;55593;51.994;5.882;2023-06-14T03:59:56;9.80;;;4.20;;
68614;SDS011;55593;51.994;5.882;2023-06-14T04:02:26;7.00;;;2.80;;
68614;SDS011;55593;51.994;5.882;2023-06-14T04:04:55;10.30;;;3.05;;
68614;SDS011;55593;51.994;5.882;2023-06-14T04:07:25;8.93;;;2.92;;
68614;SDS011;55593;51.994;5.882;2023-06-14T04:09:55;7.60;;;3.30;;
68614;SDS011;55593;51.994;5.882;2023-06-14T04:12:24;8.68;;;2.70;;
68614;SDS011;55593;51.994;5.882;2023-06-14T04:14:55;6.90;;;3.60;;
68614;SDS011;55593;51.994;5.882;2023-06-14T04:17:25;10.05;;;3.05;;
68614;SDS011;55593;51.994;5.882;2023-06-14T04:19:54;9.57;;;3.38;;
68614;SDS011;55593;51.994;5.882;2023-06-14T04:22:25;9.32;;;3.03;;
68614;SDS011;55593;51.994;5.882;2023-06-14T04:24:57;10.18;;;3.53;;
68614;SDS011;55593;51.994;5.882;2023-06-14T04:27:27;6.97;;;3.88;;
68614;SDS011;55593;51.994;5.882;2023-06-14T04:30:05;6.22;;;2.85;;
68614;SDS011;55593;51.994;5.882;2023-06-14T04:32:39;5.60;;;3.05;;
68614;SDS011;55593;51.994;5.882;2023-06-14T04:35:12;6.90;;;2.80;;
68614;SDS011;55593;51.994;5.882;2023-06-14T04:37:43;5.97;;;2.53;;
68614;SDS011;55593;51.994;5.882;2023-06-14T04:40:13;6.55;;;2.97;;
68614;SDS011;55593;51.994;5.882;2023-06-14T04:42:42;6.15;;;2.80;;
68614;SDS011;55593;51.994;5.882;2023-06-14T04:45:16;6.80;;;2.90;;
68614;SDS011;55593;51.994;5.882;2023-06-14T04:47:45;7.72;;;2.88;;
68614;SDS011;55593;51.994;5.882;2023-06-14T04:50:16;8.32;;;3.03;;
68614;SDS011;55593;51.994;5.882;2023-06-14T04:52:46;9.77;;;3.83;;
68614;SDS011;55593;51.994;5.882;2023-06-14T04:55:17;18.50;;;3.03;;
68614;SDS011;55593;51.994;5.882;2023-06-14T04:57:46;7.25;;;2.95;;
68614;SDS011;55593;51.994;5.882;2023-06-14T05:00:21;10.75;;;3.47;;
68614;SDS011;55593;51.994;5.882;2023-06-14T05:02:52;11.60;;;3.15;;
68614;SDS011;55593;51.994;5.882;2023-06-14T05:05:23;12.25;;;2.75;;
68614;SDS011;55593;51.994;5.882;2023-06-14T05:07:52;16.40;;;4.63;;
68614;SDS011;55593;51.994;5.882;2023-06-14T05:10:21;6.75;;;2.97;;
68614;SDS011;55593;51.994;5.882;2023-06-14T05:12:51;7.70;;;3.05;;
68614;SDS011;55593;51.994;5.882;2023-06-14T05:15:23;11.88;;;2.90;;
68614;SDS011;55593;51.994;5.882;2023-06-14T05:17:52;4.93;;;2.80;;
68614;SDS011;55593;51.994;5.882;2023-06-14T05:20:22;8.05;;;2.80;;
68614;SDS011;55593;51.994;5.882;2023-06-14T05:22:52;5.90;;;2.97;;
68614;SDS011;55593;51.994;5.882;2023-06-14T05:25:22;10.38;;;2.88;;
68614;SDS011;55593;51.994;5.882;2023-06-14T05:27:51;8.77;;;3.38;;
68614;SDS011;55593;51.994;5.882;2023-06-14T05:30:23;9.35;;;3.15;;
68614;SDS011;55593;51.994;5.882;2023-06-14T05:32:52;7.80;;;3.40;;
68614;SDS011;55593;51.994;5.882;2023-06-14T05:35:21;10.95;;;3.22;;
68614;SDS011;55593;51.994;5.882;2023-06-14T05:37:52;7.13;;;3.15;;
68614;SDS011;55593;51.994;5.882;2023-06-14T05:40:22;7.57;;;2.92;;
68614;SDS011;55593;51.994;5.882;2023-06-14T05:42:51;7.22;;;2.55;;
68614;SDS011;55593;51.994;5.882;2023-06-14T05:45:23;11.48;;;3.10;;
68614;SDS011;55593;51.994;5.882;2023-06-14T05:47:52;7.15;;;2.90;;
68614;SDS011;55593;51.994;5.882;2023-06-14T05:50:21;5.35;;;3.03;;
68614;SDS011;55593;51.994;5.882;2023-06-14T05:52:50;5.07;;;2.60;;
68614;SDS011;55593;51.994;5.882;2023-06-14T05:55:19;7.13;;;2.80;;
68614;SDS011;55593;51.994;5.882;2023-06-14T05:57:48;8.23;;;2.53;;
68614;SDS011;55593;51.994;5.882;2023-06-14T06:00:18;7.65;;;2.97;;
68614;SDS011;55593;51.994;5.882;2023-06-14T06:02:50;6.53;;;3.22;;
68614;SDS011;55593;51.994;5.882;2023-06-14T06:05:22;6.88;;;3.20;;
68614;SDS011;55593;51.994;5.882;2023-06-14T06:07:51;4.85;;;2.55;;
68614;SDS011;55593;51.994;5.882;2023-06-14T06:10:21;8.95;;;2.90;;
68614;SDS011;55593;51.994;5.882;2023-06-14T06:12:50;7.43;;;3.03;;
68614;SDS011;55593;51.994;5.882;2023-06-14T06:15:20;8.35;;;2.80;;
68614;SDS011;55593;51.994;5.882;2023-06-14T06:17:52;9.88;;;3.20;;
68614;SDS011;55593;51.994;5.882;2023-06-14T06:20:21;8.57;;;3.00;;
68614;SDS011;55593;51.994;5.882;2023-06-14T06:22:53;11.35;;;3.10;;
68614;SDS011;55593;51.994;5.882;2023-06-14T06:25:23;8.93;;;3.28;;
68614;SDS011;55593;51.994;5.882;2023-06-14T06:27:52;6.90;;;2.95;;
68614;SDS011;55593;51.994;5.882;2023-06-14T06:30:22;9.80;;;3.50;;
68614;SDS011;55593;51.994;5.882;2023-06-14T06:32:53;10.20;;;3.45;;
68614;SDS011;55593;51.994;5.882;2023-06-14T06:35:23;11.10;;;3.08;;
68614;SDS011;55593;51.994;5.882;2023-06-14T06:37:52;11.77;;;3.50;;
68614;SDS011;55593;51.994;5.882;2023-06-14T06:40:21;7.32;;;2.90;;
68614;SDS011;55593;51.994;5.882;2023-06-14T06:42:50;8.68;;;2.55;;
68614;SDS011;55593;51.994;5.882;2023-06-14T06:45:20;5.93;;;3.35;;
68614;SDS011;55593;51.994;5.882;2023-06-14T06:47:50;9.35;;;2.95;;
68614;SDS011;55593;51.994;5.882;2023-06-14T06:50:22;7.43;;;2.72;;
68614;SDS011;55593;51.994;5.882;2023-06-14T06:52:52;7.43;;;2.92;;
68614;SDS011;55593;51.994;5.882;2023-06-14T06:55:21;7.57;;;2.72;;
68614;SDS011;55593;51.994;5.882;2023-06-14T06:57:50;6.65;;;2.92;;
68614;SDS011;55593;51.994;5.882;2023-06-14T07:00:20;7.28;;;3.05;;
68614;SDS011;55593;51.994;5.882;2023-06-14T07:02:49;5.50;;;2.80;;
68614;SDS011;55593;51.994;5.882;2023-06-14T07:05:23;6.70;;;2.70;;
68614;SDS011;55593;51.994;5.882;2023-06-14T07:07:52;6.10;;;2.50;;
68614;SDS011;55593;51.994;5.882;2023-06-14T07:10:21;8.98;;;2.53;;
68614;SDS011;55593;51.994;5.882;2023-06-14T07:12:51;10.18;;;3.03;;
68614;SDS011;55593;51.994;5.882;2023-06-14T07:15:21;6.88;;;2.45;;
68614;SDS011;55593;51.994;5.882;2023-06-14T07:17:50;8.43;;;2.60;;
68614;SDS011;55593;51.994;5.882;2023-06-14T07:20:19;10.68;;;2.30;;
68614;SDS011;55593;51.994;5.882;2023-06-14T07:22:53;7.97;;;2.80;;
68614;SDS011;55593;51.994;5.882;2023-06-14T07:25:22;6.30;;;2.60;;
68614;SDS011;55593;51.994;5.882;2023-06-14T07:27:52;8.10;;;3.05;;
68614;SDS011;55593;51.994;5.882;2023-06-14T07:30:21;6.85;;;2.60;;
68614;SDS011;55593;51.994;5.882;2023-06-14T07:32:51;6.18;;;2.33;;
68614;SDS011;55593;51.994;5.882;2023-06-14T07:35:21;7.03;;;2.38;;
68614;SDS011;55593;51.994;5.882;2023-06-14T07:37:52;6.32;;;2.72;;
68614;SDS011;55593;51.994;5.882;2023-06-14T07:40:22;6.07;;;2.25;;
68614;SDS011;55593;51.994;5.882;2023-06-14T07:42:51;5.45;;;2.30;;
68614;SDS011;55593;51.994;5.882;2023-06-14T07:45:20;3.80;;;2.55;;
68614;SDS011;55593;51.994;5.882;2023-06-14T07:47:49;5.95;;;2.53;;
68614;SDS011;55593;51.994;5.882;2023-06-14T07:50:18;5.75;;;2.30;;
68614;SDS011;55593;51.994;5.882;2023-06-14T07:52:48;5.78;;;2.50;;
68614;SDS011;55593;51.994;5.882;2023-06-14T07:55:20;8.75;;;1.90;;
68614;SDS011;55593;51.994;5.882;2023-06-14T07:57:51;4.63;;;1.73;;
68614;SDS011;55593;51.994;5.882;2023-06-14T08:00:20;4.53;;;2.00;;
68614;SDS011;55593;51.994;5.882;2023-06-14T08:02:50;6.65;;;2.20;;
68614;SDS011;55593;51.994;5.882;2023-06-14T08:05:24;4.68;;;2.00;;
68614;SDS011;55593;51.994;5.882;2023-06-14T08:07:54;4.45;;;2.15;;
68614;SDS011;55593;51.994;5.882;2023-06-14T08:10:26;2.95;;;1.88;;
68614;SDS011;55593;51.994;5.882;2023-06-14T08:12:55;4.15;;;1.90;;
68614;SDS011;55593;51.994;5.882;2023-06-14T08:15:24;4.25;;;1.58;;
68614;SDS011;55593;51.994;5.882;2023-06-14T08:17:53;2.83;;;1.50;;
68614;SDS011;55593;51.994;5.882;2023-06-14T08:20:23;5.38;;;1.83;;
68614;SDS011;55593;51.994;5.882;2023-06-14T08:22:52;4.40;;;2.10;;
68614;SDS011;55593;51.994;5.882;2023-06-14T08:25:22;3.85;;;2.08;;
68614;SDS011;55593;51.994;5.882;2023-06-14T08:27:54;7.63;;;2.15;;
68614;SDS011;55593;51.994;5.882;2023-06-14T08:30:23;11.50;;;2.42;;
68614;SDS011;55593;51.994;5.882;2023-06-14T08:32:52;3.63;;;2.00;;
68614;SDS011;55593;51.994;5.882;2023-06-14T08:35:22;7.20;;;2.03;;
68614;SDS011;55593;51.994;5.882;2023-06-14T08:37:51;6.00;;;2.42;;
68614;SDS011;55593;51.994;5.882;2023-06-14T08:40:22;5.65;;;2.35;;
68614;SDS011;55593;51.994;5.882;2023-06-14T08:42:54;6.30;;;2.58;;
68614;SDS011;55593;51.994;5.882;2023-06-14T08:45:24;5.32;;;1.98;;
68614;SDS011;55593;51.994;5.882;2023-06-14T08:47:53;8.05;;;2.30;;
68614;SDS011;55593;51.994;5.882;2023-06-14T08:50:23;6.05;;;2.22;;
68614;SDS011;55593;51.994;5.882;2023-06-14T08:52:58;5.05;;;2.03;;
68614;SDS011;55593;51.994;5.882;2023-06-14T08:55:29;6.75;;;2.45;;
68614;SDS011;55593;51.994;5.882;2023-06-14T08:58:01;6.57;;;2.17;;
68614;SDS011;55593;51.994;5.882;2023-06-14T09:00:30;11.70;;;2.47;;
68614;SDS011;55593;51.994;5.882;2023-06-14T09:03:00;6.00;;;2.40;;
68614;SDS011;55593;51.994;5.882;2023-06-14T09:05:29;9.07;;;2.40;;
68614;SDS011;55593;51.994;5.882;2023-06-14T09:07:58;4.63;;;2.10;;
68614;SDS011;55593;51.994;5.882;2023-06-14T09:10:28;9.57;;;2.08;;
68614;SDS011;55593;51.994;5.882;2023-06-14T09:13:03;6.30;;;2.33;;
68614;SDS011;55593;51.994;5.882;2023-06-14T09:15:32;7.57;;;2.55;;
68614;SDS011;55593;51.994;5.882;2023-06-14T09:18:01;7.28;;;2.10;;
68614;SDS011;55593;51.994;5.882;2023-06-14T09:20:31;4.97;;;1.83;;
68614;SDS011;55593;51.994;5.882;2023-06-14T09:23:01;3.63;;;2.05;;
68614;SDS011;55593;51.994;5.882;2023-06-14T09:25:31;5.45;;;2.22;;
68614;SDS011;55593;51.994;5.882;2023-06-14T09:28:03;7.18;;;2.03;;
68614;SDS011;55593;51.994;5.882;2023-06-14T09:30:36;4.40;;;1.80;;
68614;SDS011;55593;51.994;5.882;2023-06-14T09:33:06;6.13;;;1.98;;
68614;SDS011;55593;51.994;5.882;2023-06-14T09:35:35;3.17;;;1.90;;
68614;SDS011;55593;51.994;5.882;2023-06-14T09:38:04;3.65;;;1.70;;
68614;SDS011;55593;51.994;5.882;2023-06-14T09:40:34;6.43;;;1.80;;
68614;SDS011;55593;51.994;5.882;2023-06-14T09:43:08;4.63;;;1.80;;
68614;SDS011;55593;51.994;5.882;2023-06-14T09:45:38;11.48;;;1.80;;
68614;SDS011;55593;51.994;5.882;2023-06-14T09:48:11;2.90;;;1.60;;
68614;SDS011;55593;51.994;5.882;2023-06-14T09:50:44;3.42;;;1.70;;
68614;SDS011;55593;51.994;5.882;2023-06-14T09:53:14;4.97;;;1.63;;
68614;SDS011;55593;51.994;5.882;2023-06-14T09:55:44;3.17;;;1.50;;
68614;SDS011;55593;51.994;5.882;2023-06-14T09:58:16;6.00;;;1.90;;
68614;SDS011;55593;51.994;5.882;2023-06-14T10:00:49;4.82;;;1.90;;
68614;SDS011;55593;51.994;5.882;2023-06-14T10:03:21;5.45;;;2.28;;
68614;SDS011;55593;51.994;5.882;2023-06-14T10:05:54;8.98;;;1.92;;
68614;SDS011;55593;51.994;5.882;2023-06-14T10:08:27;6.18;;;2.50;;
68614;SDS011;55593;51.994;5.882;2023-06-14T10:10:58;4.97;;;2.20;;
68614;SDS011;55593;51.994;5.882;2023-06-14T10:13:31;12.63;;;2.13;;
68614;SDS011;55593;51.994;5.882;2023-06-14T10:16:05;2.90;;;1.63;;
68614;SDS011;55593;51.994;5.882;2023-06-14T10:18:39;4.47;;;1.85;;
68614;SDS011;55593;51.994;5.882;2023-06-14T10:21:13;5.63;;;1.60;;
68614;SDS011;55593;51.994;5.882;2023-06-14T10:23:47;5.93;;;2.08;;
68614;SDS011;55593;51.994;5.882;2023-06-14T10:26:18;6.13;;;1.77;;
68614;SDS011;55593;51.994;5.882;2023-06-14T10:28:59;8.40;;;2.10;;
68614;SDS011;55593;51.994;5.882;2023-06-14T10:34:22;4.25;;;1.92;;
68614;SDS011;55593;51.994;5.882;2023-06-14T10:37:03;4.65;;;2.00;;
68614;SDS011;55593;51.994;5.882;2023-06-14T10:39:37;3.70;;;1.55;;
68614;SDS011;55593;51.994;5.882;2023-06-14T10:42:08;4.10;;;1.70;;
68614;SDS011;55593;51.994;5.882;2023-06-14T10:44:40;2.97;;;1.73;;
68614;SDS011;55593;51.994;5.882;2023-06-14T10:47:13;8.95;;;1.73;;
68614;SDS011;55593;51.994;5.882;2023-06-14T10:49:50;5.72;;;1.80;;
68614;SDS011;55593;51.994;5.882;2023-06-14T10:52:22;5.32;;;2.25;;
68614;SDS011;55593;51.994;5.882;2023-06-14T10:55:00;5.65;;;1.50;;
68614;SDS011;55593;51.994;5.882;2023-06-14T10:57:29;2.47;;;1.60;;
68614;SDS011;55593;51.994;5.882;2023-06-14T11:00:03;5.35;;;1.67;;
68614;SDS011;55593;51.994;5.882;2023-06-14T11:05:42;4.65;;;1.67;;
68614;SDS011;55593;51.994;5.882;2023-06-14T11:11:09;2.83;;;1.55;;
68614;SDS011;55593;51.994;5.882;2023-06-14T11:13:38;5.75;;;1.98;;
68614;SDS011;55593;51.994;5.882;2023-06-14T11:16:13;7.07;;;2.20;;
68614;SDS011;55593;51.994;5.882;2023-06-14T11:18:44;3.03;;;1.77;;
68614;SDS011;55593;51.994;5.882;2023-06-14T11:21:15;4.93;;;1.75;;
68614;SDS011;55593;51.994;5.882;2023-06-14T11:23:49;4.13;;;1.75;;
68614;SDS011;55593;51.994;5.882;2023-06-14T11:26:24;5.63;;;1.90;;
68614;SDS011;55593;51.994;5.882;2023-06-14T11:28:55;4.10;;;1.85;;
68614;SDS011;55593;51.994;5.882;2023-06-14T11:31:28;4.05;;;1.60;;
68614;SDS011;55593;51.994;5.882;2023-06-14T11:33:58;7.32;;;1.83;;
68614;SDS011;55593;51.994;5.882;2023-06-14T11:36:33;8.27;;;2.00;;
68614;SDS011;55593;51.994;5.882;2023-06-14T11:39:03;7.00;;;2.28;;
68614;SDS011;55593;51.994;5.882;2023-06-14T11:41:35;7.07;;;2.00;;
68614;SDS011;55593;51.994;5.882;2023-06-14T11:44:05;7.65;;;1.80;;
68614;SDS011;55593;51.994;5.882;2023-06-14T11:46:38;4.95;;;1.73;;
68614;SDS011;55593;51.994;5.882;2023-06-14T11:49:07;4.97;;;1.80;;
68614;SDS011;55593;51.994;5.882;2023-06-14T11:51:36;4.53;;;2.08;;
68614;SDS011;55593;51.994;5.882;2023-06-14T11:54:06;3.30;;;1.80;;
68614;SDS011;55593;51.994;5.882;2023-06-14T11:56:36;6.72;;;2.10;;
68614;SDS011;55593;51.994;5.882;2023-06-14T11:59:05;5.78;;;2.05;;
68614;SDS011;55593;51.994;5.882;2023-06-14T12:01:42;4.63;;;1.70;;
68614;SDS011;55593;51.994;5.882;2023-06-14T12:04:12;6.35;;;2.00;;
68614;SDS011;55593;51.994;5.882;2023-06-14T12:06:41;5.65;;;1.80;;
68614;SDS011;55593;51.994;5.882;2023-06-14T12:09:10;3.78;;;1.80;;
68614;SDS011;55593;51.994;5.882;2023-06-14T12:11:44;3.83;;;1.65;;
68614;SDS011;55593;51.994;5.882;2023-06-14T12:14:13;10.45;;;1.92;;
68614;SDS011;55593;51.994;5.882;2023-06-14T12:16:45;5.45;;;2.38;;
68614;SDS011;55593;51.994;5.882;2023-06-14T12:19:14;6.20;;;1.50;;
68614;SDS011;55593;51.994;5.882;2023-06-14T12:21:46;5.53;;;1.67;;
68614;SDS011;55593;51.994;5.882;2023-06-14T12:24:16;4.68;;;1.98;;
68614;SDS011;55593;51.994;5.882;2023-06-14T12:26:46;3.42;;;1.50;;
68614;SDS011;55593;51.994;5.882;2023-06-14T12:29:15;8.45;;;1.83;;
68614;SDS011;55593;51.994;5.882;2023-06-14T12:31:47;4.60;;;1.60;;
68614;SDS011;55593;51.994;5.882;2023-06-14T12:34:16;8.57;;;1.90;;
68614;SDS011;55593;51.994;5.882;2023-06-14T12:36:45;4.13;;;1.90;;
68614;SDS011;55593;51.994;5.882;2023-06-14T12:39:15;6.53;;;1.88;;
68614;SDS011;55593;51.994;5.882;2023-06-14T12:41:44;5.38;;;1.45;;
68614;SDS011;55593;51.994;5.882;2023-06-14T12:44:13;2.92;;;1.67;;
68614;SDS011;55593;51.994;5.882;2023-06-14T12:46:42;8.68;;;1.58;;
68614;SDS011;55593;51.994;5.882;2023-06-14T12:49:15;6.95;;;1.90;;
68614;SDS011;55593;51.994;5.882;2023-06-14T12:51:44;7.60;;;1.80;;
68614;SDS011;55593;51.994;5.882;2023-06-14T12:54:13;5.22;;;1.40;;
68614;SDS011;55593;51.994;5.882;2023-06-14T12:56:43;4.20;;;1.60;;
68614;SDS011;55593;51.994;5.882;2023-06-14T12:59:12;3.95;;;1.70;;
68614;SDS011;55593;51.994;5.882;2023-06-14T13:01:41;6.55;;;1.60;;
68614;SDS011;55593;51.994;5.882;2023-06-14T13:04:10;3.35;;;1.42;;
68614;SDS011;55593;51.994;5.882;2023-06-14T13:06:43;4.55;;;1.60;;
68614;SDS011;55593;51.994;5.882;2023-06-14T13:09:12;6.32;;;1.80;;
68614;SDS011;55593;51.994;5.882;2023-06-14T13:11:41;7.10;;;1.90;;
68614;SDS011;55593;51.994;5.882;2023-06-14T13:14:12;8.23;;;1.40;;
68614;SDS011;55593;51.994;5.882;2023-06-14T13:16:42;4.57;;;1.75;;
68614;SDS011;55593;51.994;5.882;2023-06-14T13:19:11;5.07;;;1.70;;
68614;SDS011;55593;51.994;5.882;2023-06-14T13:21:42;6.50;;;1.58;;
68614;SDS011;55593;51.994;5.882;2023-06-14T13:24:12;3.88;;;1.75;;
68614;SDS011;55593;51.994;5.882;2023-06-14T13:26:41;11.70;;;1.50;;
68614;SDS011;55593;51.994;5.882;2023-06-14T13:29:10;2.75;;;1.40;;
68614;SDS011;55593;51.994;5.882;2023-06-14T13:31:40;4.50;;;1.50;;
68614;SDS011;55593;51.994;5.882;2023-06-14T13:34:09;4.07;;;1.85;;
68614;SDS011;55593;51.994;5.882;2023-06-14T13:36:39;5.25;;;1.45;;
68614;SDS011;55593;51.994;5.882;2023-06-14T13:39:10;3.08;;;1.30;;
68614;SDS011;55593;51.994;5.882;2023-06-14T13:41:39;6.32;;;1.17;;
68614;SDS011;55593;51.994;5.882;2023-06-14T13:44:09;2.53;;;1.30;;
68614;SDS011;55593;51.994;5.882;2023-06-14T13:46:40;3.67;;;1.30;;
68614;SDS011;55593;51.994;5.882;2023-06-14T13:49:10;4.05;;;1.42;;
68614;SDS011;55593;51.994;5.882;2023-06-14T13:51:39;6.20;;;1.58;;
68614;SDS011;55593;51.994;5.882;2023-06-14T13:54:11;4.15;;;1.42;;
68614;SDS011;55593;51.994;5.882;2023-06-14T13:56:41;2.75;;;1.52;;
68614;SDS011;55593;51.994;5.882;2023-06-14T13:59:10;6.20;;;1.50;;
68614;SDS011;55593;51.994;5.882;2023-06-14T14:01:39;4.45;;;1.40;;
68614;SDS011;55593;51.994;5.882;2023-06-14T14:04:08;5.07;;;1.38;;
68614;SDS011;55593;51.994;5.882;2023-06-14T14:06:38;5.38;;;1.50;;
68614;SDS011;55593;51.994;5.882;2023-06-14T14:09:07;8.48;;;1.40;;
68614;SDS011;55593;51.994;5.882;2023-06-14T14:11:39;5.43;;;1.50;;
68614;SDS011;55593;51.994;5.882;2023-06-14T14:14:08;6.38;;;1.50;;
68614;SDS011;55593;51.994;5.882;2023-06-14T14:16:37;7.28;;;1.52;;
68614;SDS011;55593;51.994;5.882;2023-06-14T14:19:06;3.40;;;1.45;;
68614;SDS011;55593;51.994;5.882;2023-06-14T14:21:35;4.97;;;1.65;;
68614;SDS011;55593;51.994;5.882;2023-06-14T14:24:05;3.30;;;1.23;;
68614;SDS011;55593;51.994;5.882;2023-06-14T14:26:34;4.90;;;1.45;;
68614;SDS011;55593;51.994;5.882;2023-06-14T14:29:06;4.32;;;1.30;;
68614;SDS011;55593;51.994;5.882;2023-06-14T14:31:37;3.08;;;1.20;;
68614;SDS011;55593;51.994;5.882;2023-06-14T14:34:06;5.65;;;1.40;;
68614;SDS011;55593;51.994;5.882;2023-06-14T14:36:35;3.15;;;1.40;;
68614;SDS011;55593;51.994;5.882;2023-06-14T14:39:08;3.15;;;1.48;;
68614;SDS011;55593;51.994;5.882;2023-06-14T14:41:37;5.68;;;1.50;;
68614;SDS011;55593;51.994;5.882;2023-06-14T14:44:09;2.97;;;1.60;;
68614;SDS011;55593;51.994;5.882;2023-06-14T14:46:38;4.18;;;1.30;;
68614;SDS011;55593;51.994;5.882;2023-06-14T14:49:07;6.47;;;1.60;;
68614;SDS011;55593;51.994;5.882;2023-06-14T14:51:36;8.40;;;1.23;;
68614;SDS011;55593;51.994;5.882;2023-06-14T14:54:06;5.70;;;1.45;;
68614;SDS011;55593;51.994;5.882;2023-06-14T14:56:35;3.60;;;1.33;;
68614;SDS011;55593;51.994;5.882;2023-06-14T14:59:07;4.10;;;1.35;;
68614;SDS011;55593;51.994;5.882;2023-06-14T15:01:38;13.52;;;1.80;;
68614;SDS011;55593;51.994;5.882;2023-06-14T15:04:08;4.65;;;1.75;;
68614;SDS011;55593;51.994;5.882;2023-06-14T15:06:37;3.45;;;1.65;;
68614;SDS011;55593;51.994;5.882;2023-06-14T15:09:06;3.75;;;1.73;;
68614;SDS011;55593;51.994;5.882;2023-06-14T15:11:35;5.53;;;1.90;;
68614;SDS011;55593;51.994;5.882;2023-06-14T15:14:04;5.85;;;1.65;;
68614;SDS011;55593;51.994;5.882;2023-06-14T15:16:36;3.00;;;1.58;;